Time;durP1;ratioP1;P1;durP2;ratioP2;P2;SDS_P1;SDS_P2;PMS_P1;PMS_P2;Temp;Humidity;BMP_temperature;BMP_pressure;BME280_temperature;BME280_humidity;BME280_pressure;Samples;Min_cycle;Max_cycle;Signal;HPM_P1;HPM_P2
2023/06/02 00:02:34;;;;;;;13.20;4.63;;;;;;;11.37;55.89;100822.09;10091318;29;20060;-77
2023/06/02 00:07:39;;;;;;;12.32;4.00;;;;;;;11.37;55.65;100822.94;10090371;29;20045;-76
2023/06/02 00:12:41;;;;;;;15.48;4.03;;;;;;;11.32;55.59;100821.56;10090672;29;20067;-76
2023/06/02 00:17:44;;;;;;;13.23;4.28;;;;;;;11.22;55.71;100811.53;10090642;29;20044;-76
2023/06/02 00:22:51;;;;;;;19.58;4.63;;;;;;;11.22;55.92;100813.38;10090658;29;20512;-76
2023/06/02 00:27:53;;;;;;;18.00;3.88;;;;;;;11.25;56.33;100826.59;10090350;29;20049;-76
2023/06/02 00:32:57;;;;;;;14.55;3.88;;;;;;;11.14;56.37;100823.88;10073334;29;20045;-76
2023/06/02 00:38:04;;;;;;;12.00;5.15;;;;;;;11.08;57.37;100821.59;10072724;29;20152;-77
2023/06/02 00:43:07;;;;;;;15.50;4.15;;;;;;;11.10;56.93;100827.72;10088876;29;20044;-76
2023/06/02 00:48:10;;;;;;;19.98;4.72;;;;;;;11.11;56.95;100822.22;10073913;29;20064;-76
2023/06/02 00:53:15;;;;;;;15.63;4.68;;;;;;;11.08;57.21;100814.41;10091856;29;20048;-76
2023/06/02 00:58:17;;;;;;;14.85;4.22;;;;;;;11.02;56.83;100822.91;10088082;29;20128;-77
2023/06/02 01:03:21;;;;;;;20.70;4.47;;;;;;;11.01;56.56;100823.91;10089066;29;20048;-77
2023/06/02 01:08:26;;;;;;;14.60;4.30;;;;;;;11.02;56.83;100820.22;10072268;29;20053;-77
2023/06/02 01:13:29;;;;;;;14.07;4.97;;;;;;;11.00;56.53;100825.75;10072287;29;20052;-78
2023/06/02 01:18:35;;;;;;;17.10;4.97;;;;;;;10.92;56.62;100822.78;10086449;29;20067;-75
2023/06/02 01:23:49;;;;;;;14.52;4.28;;;;;;;10.87;56.70;100822.25;10095239;29;20037;-76
2023/06/02 01:28:52;;;;;;;18.35;4.57;;;;;;;10.88;56.56;100825.78;10084963;29;20048;-77
2023/06/02 01:34:04;;;;;;;21.10;4.88;;;;;;;10.73;56.45;100825.13;10099957;29;20049;-78
2023/06/02 01:39:11;;;;;;;11.77;3.90;;;;;;;10.70;56.43;100828.06;10085459;29;20078;-75
2023/06/02 01:44:14;;;;;;;13.23;4.15;;;;;;;10.65;56.12;100832.91;10084157;29;20049;-77
2023/06/02 01:49:17;;;;;;;17.77;5.05;;;;;;;10.66;56.21;100827.41;10084339;29;20045;-77
2023/06/02 01:54:22;;;;;;;17.02;5.25;;;;;;;10.58;56.11;100814.53;10084028;29;20055;-76
2023/06/02 01:59:25;;;;;;;12.05;3.90;;;;;;;10.53;56.45;100821.22;10081455;29;20420;-78
2023/06/02 02:04:29;;;;;;;16.08;4.03;;;;;;;10.61;56.37;100817.00;10097195;29;20556;-78
2023/06/02 02:09:33;;;;;;;16.27;4.60;;;;;;;10.64;56.49;100813.25;10100415;29;20052;-78
2023/06/02 02:14:36;;;;;;;13.57;4.47;;;;;;;10.53;56.23;100815.84;10101176;29;20051;-78
2023/06/02 02:19:39;;;;;;;12.55;4.05;;;;;;;10.48;56.43;100818.03;10100423;29;20524;-77
2023/06/02 02:24:43;;;;;;;13.25;4.00;;;;;;;10.38;56.58;100812.47;10099349;29;20071;-76
2023/06/02 02:29:46;;;;;;;23.63;4.28;;;;;;;10.37;56.70;100822.38;10083574;29;20045;-77
2023/06/02 02:34:49;;;;;;;20.15;6.28;;;;;;;10.32;56.62;100823.69;10081301;29;20501;-76
2023/06/02 02:39:54;;;;;;;22.75;6.03;;;;;;;10.24;56.22;100824.22;10077211;29;20519;-78
2023/06/02 02:44:57;;;;;;;16.40;4.15;;;;;;;10.29;56.14;100826.59;10076648;29;20083;-77
2023/06/02 02:50:00;;;;;;;15.15;5.28;;;;;;;10.22;56.51;100828.00;10092596;29;20436;-76
2023/06/02 02:55:06;;;;;;;15.98;5.57;;;;;;;10.17;56.80;100825.63;10092117;29;20056;-76
2023/06/02 03:00:10;;;;;;;14.68;5.47;;;;;;;10.19;56.41;100823.69;10074116;29;20055;-77
2023/06/02 03:05:13;;;;;;;15.05;5.57;;;;;;;10.26;56.63;100819.63;10076270;29;20076;-78
2023/06/02 03:10:20;;;;;;;16.52;5.30;;;;;;;10.17;57.04;100825.63;10076769;29;20053;-76
2023/06/02 03:15:27;;;;;;;15.35;4.95;;;;;;;10.09;57.02;100826.22;10076292;29;20667;-76
2023/06/02 03:20:31;;;;;;;13.73;4.88;;;;;;;10.13;56.82;100837.56;10075990;29;20415;-77
2023/06/02 03:25:36;;;;;;;12.90;4.55;;;;;;;9.81;58.03;100831.78;10075525;29;20511;-77
2023/06/02 03:30:40;;;;;;;13.23;4.63;;;;;;;9.94;57.56;100843.41;10076043;29;20135;-77
2023/06/02 03:35:43;;;;;;;19.90;6.05;;;;;;;10.05;57.49;100848.00;10090818;29;20051;-76
2023/06/02 03:40:49;;;;;;;13.75;5.35;;;;;;;10.05;57.42;100842.63;10092127;29;20213;-76
2023/06/02 03:45:52;;;;;;;15.32;5.57;;;;;;;9.99;57.85;100840.41;10086235;29;20081;-76
2023/06/02 03:50:55;;;;;;;29.50;6.55;;;;;;;10.02;58.16;100843.72;10091656;29;20045;-77
2023/06/02 03:55:59;;;;;;;14.48;6.45;;;;;;;9.41;59.59;100835.44;10075376;29;20060;-77
2023/06/02 04:01:02;;;;;;;19.13;6.13;;;;;;;9.85;58.90;100847.56;10081770;29;20060;-77
2023/06/02 04:06:07;;;;;;;17.92;5.80;;;;;;;10.04;58.79;100847.16;10081689;29;20190;-77
2023/06/02 04:11:12;;;;;;;18.42;6.13;;;;;;;9.74;59.72;100852.84;10078838;29;20148;-78
2023/06/02 04:16:15;;;;;;;15.20;6.10;;;;;;;9.78;59.99;100857.00;10092195;29;20047;-77
2023/06/02 04:21:18;;;;;;;17.83;5.80;;;;;;;10.08;59.74;100855.84;10071440;29;20064;-75
2023/06/02 04:26:24;;;;;;;11.02;4.72;;;;;;;10.32;59.15;100858.59;10054735;29;20045;-78
2023/06/02 04:31:39;;;;;;;12.52;5.30;;;;;;;10.36;58.90;100863.59;10036681;29;20501;-75
2023/06/02 04:36:44;;;;;;;14.70;5.38;;;;;;;10.28;59.01;100865.13;10048953;29;21134;-75
2023/06/02 04:41:50;;;;;;;14.50;6.03;;;;;;;10.25;59.41;100865.34;10034327;29;20056;-76
2023/06/02 04:46:54;;;;;;;17.30;5.53;;;;;;;10.41;59.32;100865.09;10049358;29;20045;-77
2023/06/02 04:51:58;;;;;;;14.20;4.95;;;;;;;10.61;59.39;100883.28;10052994;29;20049;-77
2023/06/02 04:57:05;;;;;;;12.88;4.95;;;;;;;10.50;59.10;100872.47;10049880;29;20048;-76
2023/06/02 05:02:09;;;;;;;15.52;4.97;;;;;;;10.41;59.81;100884.75;10034778;29;20048;-76
2023/06/02 05:07:12;;;;;;;13.15;5.00;;;;;;;10.11;60.13;100880.63;10028692;29;20084;-75
2023/06/02 05:12:19;;;;;;;13.02;5.32;;;;;;;10.41;59.54;100873.16;10035326;29;20060;-78
2023/06/02 05:17:23;;;;;;;18.17;6.40;;;;;;;10.42;59.15;100878.41;10050738;29;20465;-77
2023/06/02 05:22:29;;;;;;;17.98;6.07;;;;;;;10.52;58.84;100876.78;10049029;29;20049;-77
2023/06/02 05:27:34;;;;;;;10.40;4.00;;;;;;;10.76;59.09;100876.81;10035265;29;20045;-78
2023/06/02 05:32:37;;;;;;;14.30;3.95;;;;;;;10.57;58.87;100879.13;10050719;29;20045;-76
2023/06/02 05:37:42;;;;;;;19.13;4.20;;;;;;;10.83;59.06;100890.63;10033694;29;20045;-77
2023/06/02 05:42:47;;;;;;;18.15;4.18;;;;;;;10.97;58.58;100882.44;10034568;29;20049;-76
2023/06/02 05:47:52;;;;;;;26.77;4.25;;;;;;;11.27;58.68;100891.84;10034421;29;20094;-76
2023/06/02 05:52:58;;;;;;;15.07;4.03;;;;;;;11.27;58.32;100889.16;10033817;29;20420;-76
2023/06/02 05:58:03;;;;;;;20.90;4.25;;;;;;;11.30;58.49;100891.63;10036097;29;21136;-77
2023/06/02 06:03:06;;;;;;;22.17;3.75;;;;;;;11.44;57.98;100890.59;10035161;29;21658;-76
2023/06/02 06:08:13;;;;;;;19.70;4.00;;;;;;;11.25;58.90;100900.03;10048990;29;20127;-75
2023/06/02 06:13:17;;;;;;;13.18;4.00;;;;;;;11.22;58.88;100894.06;10059037;29;20050;-77
2023/06/02 06:18:20;;;;;;;13.88;4.10;;;;;;;11.46;58.13;100894.88;10041168;29;20082;-77
2023/06/02 06:23:25;;;;;;;18.10;4.00;;;;;;;11.46;57.56;100892.19;10045366;29;21110;-76
2023/06/02 06:28:29;;;;;;;17.00;4.45;;;;;;;11.82;57.48;100892.09;10042217;29;20938;-76
2023/06/02 06:33:34;;;;;;;20.17;4.43;;;;;;;12.18;56.66;100885.69;10056730;29;20072;-76
2023/06/02 06:38:38;;;;;;;17.38;4.07;;;;;;;12.12;56.70;100895.09;10057582;29;20063;-76
2023/06/02 06:43:42;;;;;;;14.45;3.88;;;;;;;12.59;56.08;100903.06;10037261;29;20048;-76
2023/06/02 06:48:51;;;;;;;14.48;4.65;;;;;;;12.58;55.68;100912.97;10054485;29;20056;-76
2023/06/02 06:53:55;;;;;;;19.75;4.43;;;;;;;12.65;56.58;100913.34;10055121;29;20144;-76
2023/06/02 06:58:59;;;;;;;18.25;4.45;;;;;;;13.05;55.26;100913.63;10057687;29;20057;-75
2023/06/02 07:04:02;;;;;;;19.52;4.82;;;;;;;13.33;54.36;100914.00;10055726;29;20049;-75
2023/06/02 07:09:05;;;;;;;21.13;5.00;;;;;;;13.07;54.07;100918.88;10058481;29;20052;-77
2023/06/02 07:14:09;;;;;;;20.17;4.82;;;;;;;13.32;55.41;100924.91;10055423;29;20470;-77
2023/06/02 07:19:18;;;;;;;17.70;4.50;;;;;;;14.16;53.25;100906.88;10038740;29;20112;-77
2023/06/02 07:24:21;;;;;;;13.88;4.63;;;;;;;14.26;52.50;100918.59;10055599;29;20103;-78
2023/06/02 07:29:26;;;;;;;14.05;4.40;;;;;;;14.28;52.64;100921.16;10055542;29;20057;-77
2023/06/02 07:34:28;;;;;;;16.10;4.85;;;;;;;14.32;52.63;100909.94;10053741;29;20060;-77
2023/06/02 07:39:31;;;;;;;17.23;5.60;;;;;;;14.10;52.84;100923.63;10052626;29;20694;-77
2023/06/02 07:44:35;;;;;;;20.88;4.95;;;;;;;13.87;53.65;100931.03;10052502;29;20056;-78
2023/06/02 07:49:38;;;;;;;23.83;5.80;;;;;;;13.98;54.47;100925.53;10052247;29;20172;-77
2023/06/02 07:54:41;;;;;;;18.85;4.78;;;;;;;14.36;52.78;100922.19;10055519;29;20060;-76
2023/06/02 07:59:46;;;;;;;16.65;5.10;;;;;;;14.50;53.28;100920.97;10053624;29;20059;-75
2023/06/02 08:04:48;;;;;;;21.38;5.18;;;;;;;14.67;52.66;100924.88;10052770;29;20171;-78
2023/06/02 08:09:52;;;;;;;16.30;5.30;;;;;;;14.57;52.96;100926.72;10053606;29;20517;-77
2023/06/02 08:14:56;;;;;;;15.65;5.18;;;;;;;14.35;53.71;100931.28;10041614;29;20064;-77
2023/06/02 08:20:01;;;;;;;20.02;6.22;;;;;;;14.53;53.89;100931.50;10051940;29;20053;-76
2023/06/02 08:25:05;;;;;;;13.00;5.97;;;;;;;14.55;53.14;100936.81;10050960;29;20094;-77
2023/06/02 08:30:11;;;;;;;13.65;5.55;;;;;;;14.85;53.56;100938.59;10048870;29;20056;-78
2023/06/02 08:35:14;;;;;;;19.40;5.80;;;;;;;14.87;53.29;100942.03;10049976;29;20551;-76
2023/06/02 08:40:20;;;;;;;16.10;5.78;;;;;;;15.05;53.39;100937.63;10038054;29;20060;-76
2023/06/02 08:45:24;;;;;;;15.77;5.85;;;;;;;14.97;52.96;100945.59;10053176;29;20606;-77
2023/06/02 08:50:32;;;;;;;16.60;6.20;;;;;;;14.97;52.71;100958.25;10034273;29;20556;-77
2023/06/02 08:55:39;;;;;;;20.30;6.38;;;;;;;14.76;53.58;100952.97;10048897;29;20057;-76
2023/06/02 09:00:43;;;;;;;19.20;6.28;;;;;;;14.56;54.32;100957.41;10051195;29;20138;-76
2023/06/02 09:05:46;;;;;;;15.38;5.43;;;;;;;14.71;54.56;100961.47;10050852;29;20053;-76
2023/06/02 09:10:49;;;;;;;24.52;6.70;;;;;;;14.78;54.25;100961.78;10049442;29;20073;-78
2023/06/02 09:15:58;;;;;;;21.23;5.97;;;;;;;14.79;54.48;100966.19;10050811;29;20135;-76
2023/06/02 09:21:01;;;;;;;19.67;5.63;;;;;;;14.78;54.05;100959.94;10053116;29;20116;-77
2023/06/02 09:26:17;;;;;;;18.20;5.82;;;;;;;14.70;54.56;100964.31;10048343;29;20056;-78
2023/06/02 09:31:28;;;;;;;20.90;6.70;;;;;;;14.97;54.04;100960.97;10050206;29;20517;-78
2023/06/02 09:36:31;;;;;;;14.77;6.00;;;;;;;15.11;53.97;100959.72;10050533;29;20053;-78
2023/06/02 09:41:34;;;;;;;20.50;5.85;;;;;;;15.61;53.31;100973.19;10050432;29;20056;-78
2023/06/02 09:46:42;;;;;;;16.17;6.30;;;;;;;16.45;51.53;100965.19;10055238;29;20061;-78
2023/06/02 09:51:45;;;;;;;18.20;6.10;;;;;;;16.42;50.40;100957.34;10056526;29;20417;-77
2023/06/02 09:56:50;;;;;;;20.08;7.18;;;;;;;16.81;50.77;100966.19;10056035;29;20053;-77
2023/06/02 10:01:54;;;;;;;14.13;5.78;;;;;;;16.78;50.03;100965.59;10056607;29;20084;-77
2023/06/02 10:07:13;;;;;;;15.52;5.65;;;;;;;17.52;49.66;100966.44;10057578;29;20453;-77
2023/06/02 10:12:37;;;;;;;16.85;6.20;;;;;;;18.43;46.46;100952.50;10037613;29;20516;-79
2023/06/02 10:17:53;;;;;;;13.65;5.35;;;;;;;19.11;45.73;100952.44;10056781;29;20053;-78
2023/06/02 10:23:23;;;;;;;14.60;4.97;;;;;;;19.90;43.80;100952.88;10054067;29;20064;-78
2023/06/02 10:28:28;;;;;;;10.45;4.40;;;;;;;18.98;43.99;100957.53;10052846;29;20124;-78
2023/06/02 10:33:46;;;;;;;13.27;5.15;;;;;;;18.95;44.61;100942.41;10058712;29;20049;-78
2023/06/02 10:38:49;;;;;;;16.55;5.38;;;;;;;18.98;45.41;100943.94;10053228;29;20188;-78
2023/06/02 10:44:22;;;;;;;12.57;4.88;;;;;;;19.66;43.69;100945.56;10057202;29;20064;-78
2023/06/02 10:49:54;;;;;;;13.93;6.47;;;;;;;20.09;42.43;100943.50;10056286;29;20641;-78
2023/06/02 10:55:26;;;;;;;12.18;4.80;;;;;;;21.01;41.20;100952.91;10054545;29;20563;-78
2023/06/02 11:00:50;;;;;;;11.00;4.97;;;;;;;21.11;39.58;100938.19;10056694;29;20049;-78
2023/06/02 11:06:18;;;;;;;11.68;4.35;;;;;;;21.06;40.59;100938.72;10052943;29;20083;-79
2023/06/02 11:11:53;;;;;;;10.40;3.75;;;;;;;21.15;40.84;100936.81;10053618;29;20148;-78
2023/06/02 11:17:30;;;;;;;15.40;3.72;;;;;;;21.82;38.50;100928.78;10053813;29;20053;-78
2023/06/02 11:22:36;;;;;;;14.40;4.70;;;;;;;20.69;40.57;100939.41;10053388;29;20060;-79
2023/06/02 11:27:44;;;;;;;15.70;5.00;;;;;;;20.42;41.54;100933.38;10053812;29;20045;-79
2023/06/02 11:32:49;;;;;;;11.35;3.90;;;;;;;20.42;41.33;100930.63;10052761;29;20084;-77
2023/06/02 11:38:06;;;;;;;13.70;4.07;;;;;;;20.83;40.22;100924.16;10053134;29;20057;-78
2023/06/02 11:43:09;;;;;;;14.57;4.88;;;;;;;20.71;41.15;100921.00;10051374;29;20045;-77
2023/06/02 11:48:12;;;;;;;9.68;4.15;;;;;;;21.15;40.36;100912.22;10052260;29;20525;-78
2023/06/02 11:53:17;;;;;;;12.45;3.67;;;;;;;22.95;38.26;100904.88;10052623;29;20049;-78
2023/06/02 11:58:23;;;;;;;12.43;4.30;;;;;;;23.65;36.53;100909.63;10063080;29;20059;-78
2023/06/02 12:03:28;;;;;;;8.88;3.78;;;;;;;23.86;36.14;100908.78;10072006;29;20060;-78
2023/06/02 12:08:32;;;;;;;9.35;4.10;;;;;;;24.51;35.44;100892.09;10048919;29;20779;-77
2023/06/02 12:13:35;;;;;;;8.57;3.90;;;;;;;24.21;34.15;100889.56;10051738;29;20049;-78
2023/06/02 12:18:38;;;;;;;12.40;4.13;;;;;;;22.89;36.15;100895.56;10051398;29;20056;-78
2023/06/02 12:23:45;;;;;;;9.18;3.88;;;;;;;24.04;36.28;100894.53;10053869;29;20076;-78
2023/06/02 12:28:50;;;;;;;9.73;3.67;;;;;;;25.23;33.53;100887.88;10054784;29;20076;-78
2023/06/02 12:33:53;;;;;;;14.35;3.75;;;;;;;25.52;33.15;100896.81;10056419;29;20120;-78
2023/06/02 12:38:59;;;;;;;11.70;3.88;;;;;;;23.24;35.01;100894.91;10053446;29;20052;-78
2023/06/02 12:44:02;;;;;;;7.03;3.70;;;;;;;23.48;34.56;100889.03;10059382;29;20048;-79
2023/06/02 12:49:06;;;;;;;11.55;3.80;;;;;;;23.05;35.58;100880.78;10060301;29;20055;-79
2023/06/02 12:54:10;;;;;;;9.38;3.65;;;;;;;24.74;33.70;100878.88;10069765;29;20424;-78
2023/06/02 12:59:13;;;;;;;11.27;4.32;;;;;;;24.22;34.24;100884.97;10055131;29;20057;-78
2023/06/02 13:04:18;;;;;;;10.77;3.50;;;;;;;24.87;33.37;100879.97;10038291;29;20049;-78
2023/06/02 13:09:23;;;;;;;11.00;3.03;;;;;;;25.47;33.25;100871.84;10055047;29;20048;-79
2023/06/02 13:14:26;;;;;;;6.30;3.00;;;;;;;25.12;32.58;100883.00;10060065;29;20060;-79
2023/06/02 13:19:29;;;;;;;9.27;3.15;;;;;;;24.11;34.63;100880.88;10058838;29;20205;-79
2023/06/02 13:24:34;;;;;;;8.15;2.70;;;;;;;25.56;32.35;100870.56;10059399;29;20049;-78
2023/06/02 13:29:37;;;;;;;11.05;3.90;;;;;;;25.48;32.03;100874.41;10055956;29;20053;-78
2023/06/02 13:34:41;;;;;;;8.95;2.90;;;;;;;23.72;34.75;100871.28;10052099;29;20060;-78
2023/06/02 13:39:45;;;;;;;7.97;2.80;;;;;;;22.72;36.36;100878.50;10051133;29;20049;-78
2023/06/02 13:44:48;;;;;;;9.90;2.80;;;;;;;22.02;36.84;100874.41;10050812;29;20060;-77
2023/06/02 13:49:51;;;;;;;9.90;3.05;;;;;;;23.25;35.84;100863.72;10037483;29;20049;-78
2023/06/02 13:54:56;;;;;;;8.38;2.80;;;;;;;24.52;32.63;100866.34;10051077;29;20565;-79
2023/06/02 13:59:58;;;;;;;11.73;2.88;;;;;;;24.52;33.41;100864.44;10066456;29;20053;-78
2023/06/02 14:05:01;;;;;;;8.23;2.78;;;;;;;24.73;32.76;100851.59;10047278;29;20045;-78
2023/06/02 14:10:07;;;;;;;4.07;2.72;;;;;;;23.97;34.39;100849.78;10058790;29;20056;-79
2023/06/02 14:15:11;;;;;;;5.30;2.40;;;;;;;22.82;34.98;100859.03;10058127;29;20049;-78
2023/06/02 14:20:13;;;;;;;4.63;2.33;;;;;;;22.93;35.55;100854.94;10053693;29;20045;-78
2023/06/02 14:25:18;;;;;;;12.35;3.03;;;;;;;24.20;34.94;100846.72;10052413;29;20053;-78
2023/06/02 14:30:21;;;;;;;9.73;3.00;;;;;;;24.82;33.06;100858.63;10063103;29;20422;-79
2023/06/02 14:35:24;;;;;;;7.70;2.75;;;;;;;24.86;33.38;100865.38;10063919;29;21203;-78
2023/06/02 14:40:28;;;;;;;9.93;3.10;;;;;;;25.99;33.32;100848.13;10064956;29;20048;-78
2023/06/02 14:45:31;;;;;;;5.93;2.55;;;;;;;24.91;32.16;100854.63;10066080;29;20049;-79
2023/06/02 14:50:34;;;;;;;8.40;2.83;;;;;;;23.00;34.63;100855.84;10061639;29;20568;-79
2023/06/02 14:55:38;;;;;;;13.52;3.05;;;;;;;21.74;37.67;100871.41;10061553;29;20048;-77
2023/06/02 15:00:41;;;;;;;10.30;2.85;;;;;;;20.69;38.95;100865.72;10060535;29;20048;-78
2023/06/02 15:05:44;;;;;;;8.60;3.30;;;;;;;20.43;40.27;100866.00;10057213;29;20405;-78
2023/06/02 15:10:49;;;;;;;7.80;3.38;;;;;;;20.36;39.14;100860.41;10042829;29;20060;-78
2023/06/02 15:15:52;;;;;;;11.95;3.13;;;;;;;20.45;39.70;100869.41;10059585;29;20056;-78
2023/06/02 15:20:55;;;;;;;10.63;2.92;;;;;;;20.91;39.41;100862.16;10060183;29;20059;-78
2023/06/02 15:25:59;;;;;;;13.23;2.97;;;;;;;20.76;39.60;100861.22;10058116;29;20057;-78
2023/06/02 15:31:02;;;;;;;10.73;2.92;;;;;;;20.71;40.37;100860.94;10058721;29;20112;-77
2023/06/02 15:36:06;;;;;;;10.93;3.60;;;;;;;20.70;41.18;100859.22;10058704;29;20061;-78
2023/06/02 15:41:11;;;;;;;10.00;2.78;;;;;;;20.26;42.04;100874.22;10041965;29;20076;-78
2023/06/02 15:46:13;;;;;;;8.50;3.53;;;;;;;20.07;42.69;100855.53;10059847;29;20457;-78
2023/06/02 15:51:16;;;;;;;14.88;2.90;;;;;;;19.97;43.86;100863.09;10057727;29;20055;-78
2023/06/02 15:56:21;;;;;;;11.73;3.90;;;;;;;19.93;43.92;100869.91;10076126;29;20069;-78
2023/06/02 16:01:26;;;;;;;8.77;2.95;;;;;;;19.98;43.36;100868.34;10078333;29;20057;-78
2023/06/02 16:06:29;;;;;;;9.38;3.05;;;;;;;20.02;43.48;100868.84;10056832;29;20053;-78
2023/06/02 16:11:34;;;;;;;10.00;2.50;;;;;;;20.23;43.04;100862.81;10055161;29;20179;-78
2023/06/02 16:16:37;;;;;;;12.20;2.78;;;;;;;20.41;43.33;100862.63;10055270;29;20448;-78
2023/06/02 16:21:40;;;;;;;7.60;3.03;;;;;;;20.51;43.67;100864.06;10057667;29;20085;-77
2023/06/02 16:26:45;;;;;;;9.93;3.10;;;;;;;20.25;43.26;100855.31;10061187;29;20228;-78
2023/06/02 16:31:48;;;;;;;10.20;3.30;;;;;;;20.37;43.45;100853.94;10055477;29;20048;-77
2023/06/02 16:36:51;;;;;;;9.15;3.70;;;;;;;20.95;43.07;100854.44;10055290;29;20068;-78
2023/06/02 16:41:55;;;;;;;9.15;2.88;;;;;;;20.90;42.76;100844.09;10036113;29;20104;-78
2023/06/02 16:46:58;;;;;;;13.20;3.78;;;;;;;21.76;41.06;100838.47;10056442;29;20682;-78
2023/06/02 16:52:01;;;;;;;10.85;3.58;;;;;;;22.22;40.60;100849.22;10054629;29;20045;-78
2023/06/02 16:57:07;;;;;;;15.27;3.80;;;;;;;21.85;40.38;100840.06;10054610;29;20064;-78
2023/06/02 17:02:10;;;;;;;8.75;3.38;;;;;;;20.83;40.95;100854.03;10055942;29;20044;-78
2023/06/02 17:07:12;;;;;;;7.57;2.42;;;;;;;26.80;33.25;100828.34;10056221;29;20555;-78
2023/06/02 17:12:17;;;;;;;6.80;2.15;;;;;;;29.84;28.14;100835.16;10054941;29;20056;-78
2023/06/02 17:17:20;;;;;;;10.95;2.25;;;;;;;29.22;28.68;100835.56;10051522;29;20052;-78
2023/06/02 17:22:26;;;;;;;10.43;2.72;;;;;;;25.90;31.68;100836.50;10066119;29;20053;-78
2023/06/02 17:27:31;;;;;;;9.20;2.47;;;;;;;22.50;36.19;100839.28;10061541;29;20063;-78
2023/06/02 17:32:34;;;;;;;9.32;2.75;;;;;;;20.79;39.58;100849.97;10055639;29;20529;-77
2023/06/02 17:37:37;;;;;;;7.05;2.35;;;;;;;20.45;40.11;100851.16;10044369;29;20168;-77
2023/06/02 17:42:42;;;;;;;9.32;2.53;;;;;;;20.21;40.80;100859.41;10056697;29;20048;-77
2023/06/02 17:47:46;;;;;;;8.52;3.25;;;;;;;19.89;41.53;100862.06;10051971;29;20478;-78
2023/06/02 17:52:49;;;;;;;9.18;3.47;;;;;;;19.26;43.33;100873.69;10053522;29;20081;-78
2023/06/02 17:57:56;;;;;;;5.07;2.28;;;;;;;18.84;44.27;100873.78;10053462;29;20128;-77
2023/06/02 18:03:00;;;;;;;8.95;3.47;;;;;;;18.80;44.98;100870.56;10054817;29;20056;-78
2023/06/02 18:08:03;;;;;;;10.55;2.80;;;;;;;18.70;45.13;100870.66;10060328;29;20088;-78
2023/06/02 18:13:07;;;;;;;10.25;2.60;;;;;;;18.69;45.64;100862.66;10048913;29;20501;-77
2023/06/02 18:18:10;;;;;;;7.93;2.45;;;;;;;18.60;45.57;100869.13;10054714;29;20469;-77
2023/06/02 18:23:13;;;;;;;8.88;2.53;;;;;;;18.36;45.86;100873.44;10057323;29;20173;-78
2023/06/02 18:28:18;;;;;;;14.57;7.43;;;;;;;18.14;46.63;100870.28;10059347;29;20428;-79
2023/06/02 18:33:20;;;;;;;11.40;5.45;;;;;;;17.84;47.21;100877.03;10057206;29;20083;-77
2023/06/02 18:38:23;;;;;;;6.78;2.40;;;;;;;17.64;47.73;100880.97;10056081;29;20045;-77
2023/06/02 18:43:28;;;;;;;9.00;3.00;;;;;;;17.42;47.94;100888.63;10056609;29;20052;-77
2023/06/02 18:48:31;;;;;;;6.55;3.00;;;;;;;17.47;47.90;100885.44;10057407;29;20057;-77
2023/06/02 18:53:33;;;;;;;8.85;3.20;;;;;;;17.41;48.24;100889.59;10055407;29;20699;-78
2023/06/02 18:58:38;;;;;;;6.07;2.63;;;;;;;17.28;48.46;100902.75;10054594;29;21158;-78
2023/06/02 19:03:41;;;;;;;10.65;2.83;;;;;;;17.18;48.74;100896.53;10045659;29;20060;-78
2023/06/02 19:08:44;;;;;;;9.02;2.78;;;;;;;17.03;48.79;100904.31;10054061;29;20436;-77
2023/06/02 19:13:48;;;;;;;6.95;3.00;;;;;;;16.89;49.11;100897.56;10058521;29;21125;-77
2023/06/02 19:18:51;;;;;;;7.95;2.95;;;;;;;16.70;49.58;100900.41;10041978;29;20052;-77
2023/06/02 19:23:54;;;;;;;4.45;2.80;;;;;;;16.56;49.79;100894.50;10054799;29;20060;-77
2023/06/02 19:28:58;;;;;;;7.47;3.03;;;;;;;16.41;50.33;100895.16;10055327;29;20049;-76
2023/06/02 19:34:01;;;;;;;6.72;2.53;;;;;;;16.26;51.30;100902.91;10055723;29;20051;-78
2023/06/02 19:39:07;;;;;;;8.07;2.50;;;;;;;16.13;51.87;100908.66;10053978;29;20053;-77
2023/06/02 19:44:11;;;;;;;4.68;2.80;;;;;;;16.02;51.76;100908.81;10054703;29;20060;-77
2023/06/02 19:49:14;;;;;;;3.80;2.78;;;;;;;15.96;51.96;100912.09;10055677;29;20091;-77
2023/06/02 19:54:17;;;;;;;7.20;3.17;;;;;;;15.88;52.45;100921.00;10055228;29;20049;-77
2023/06/02 19:59:22;;;;;;;12.07;2.92;;;;;;;15.83;53.06;100917.84;10052459;29;20052;-77
2023/06/02 20:04:25;;;;;;;9.23;3.35;;;;;;;15.74;53.06;100921.41;10052449;29;20060;-76
2023/06/02 20:09:27;;;;;;;13.60;3.33;;;;;;;15.68;53.34;100917.44;10050193;29;20078;-77
2023/06/02 20:14:32;;;;;;;6.38;3.10;;;;;;;15.65;53.57;100924.00;10048926;29;20104;-77
2023/06/02 20:19:34;;;;;;;7.63;3.33;;;;;;;15.45;54.37;100933.13;10055920;29;20045;-79
2023/06/02 20:24:37;;;;;;;9.55;3.72;;;;;;;15.33;54.91;100929.69;10055233;29;20049;-78
2023/06/02 20:29:42;;;;;;;10.35;4.38;;;;;;;15.24;55.02;100930.53;10051630;29;20061;-78
2023/06/02 20:34:45;;;;;;;11.80;3.90;;;;;;;15.13;55.67;100928.81;10044159;29;20064;-79
2023/06/02 20:39:48;;;;;;;8.43;3.40;;;;;;;14.87;56.38;100933.91;10051756;29;20053;-78
2023/06/02 20:44:53;;;;;;;10.68;3.80;;;;;;;14.73;56.83;100942.41;10056040;29;20049;-77
2023/06/02 20:49:56;;;;;;;6.35;3.30;;;;;;;14.77;57.12;100943.84;10054126;29;20060;-78
2023/06/02 20:54:59;;;;;;;6.53;3.47;;;;;;;14.65;56.95;100939.56;10053571;29;20630;-78
2023/06/02 21:00:05;;;;;;;8.60;3.50;;;;;;;14.49;57.61;100931.94;10056097;29;20053;-78
2023/06/02 21:05:08;;;;;;;4.47;3.38;;;;;;;14.42;57.85;100933.47;10054802;29;20049;-77
2023/06/02 21:10:11;;;;;;;7.65;3.28;;;;;;;14.36;57.89;100934.84;10069552;29;20076;-78
2023/06/02 21:15:15;;;;;;;10.38;4.15;;;;;;;14.38;57.33;100941.84;10052483;29;20056;-78
2023/06/02 21:20:18;;;;;;;6.32;3.70;;;;;;;14.38;57.21;100939.16;10049418;29;20048;-78
2023/06/02 21:25:21;;;;;;;6.85;3.60;;;;;;;14.37;57.18;100941.94;10053294;29;20053;-78
2023/06/02 21:30:25;;;;;;;5.60;3.35;;;;;;;14.26;57.51;100940.22;10057373;29;20521;-78
2023/06/02 21:35:28;;;;;;;7.32;3.42;;;;;;;14.19;57.39;100946.28;10065907;29;20056;-76
2023/06/02 21:40:31;;;;;;;4.80;3.60;;;;;;;14.18;57.55;100955.38;10054448;29;20040;-76
2023/06/02 21:45:43;;;;;;;7.25;3.83;;;;;;;13.98;58.14;100957.09;10085418;29;20576;-77
2023/06/02 21:50:46;;;;;;;9.18;3.20;;;;;;;13.81;57.33;100953.16;10087282;29;20064;-78
2023/06/02 21:55:49;;;;;;;10.13;2.88;;;;;;;13.79;56.15;100965.94;10098172;29;20041;-79
2023/06/02 22:00:53;;;;;;;4.88;2.75;;;;;;;13.75;55.97;100968.03;10101246;29;20128;-80
2023/06/02 22:05:56;;;;;;;4.93;2.50;;;;;;;13.77;54.59;100963.38;10097755;29;20493;-78
2023/06/02 22:11:00;;;;;;;5.35;2.45;;;;;;;13.77;53.16;100984.09;10096231;29;20057;-78
2023/06/02 22:16:04;;;;;;;5.55;2.13;;;;;;;13.74;52.29;100987.06;10097059;29;20069;-79
2023/06/02 22:21:07;;;;;;;7.63;1.95;;;;;;;13.69;51.98;100991.03;10098954;29;20048;-77
2023/06/02 22:26:10;;;;;;;2.83;1.90;;;;;;;13.56;51.50;100992.19;10094358;29;20501;-77
2023/06/02 22:31:14;;;;;;;3.53;1.92;;;;;;;13.55;51.37;100990.47;10096967;29;20500;-79
2023/06/02 22:36:17;;;;;;;3.78;1.88;;;;;;;13.44;51.44;101000.34;10095822;29;20040;-78
2023/06/02 22:41:21;;;;;;;5.18;1.85;;;;;;;13.34;50.83;100998.50;10099654;29;20057;-78
2023/06/02 22:46:25;;;;;;;3.70;1.80;;;;;;;13.26;49.77;100996.44;10095321;29;20052;-79
2023/06/02 22:51:28;;;;;;;2.97;2.00;;;;;;;13.08;49.85;100993.38;10095946;29;20096;-78
2023/06/02 22:56:31;;;;;;;2.60;1.40;;;;;;;13.03;49.00;100999.19;10095747;29;20049;-78
2023/06/02 23:01:35;;;;;;;2.25;1.45;;;;;;;12.96;48.58;101003.34;10096729;29;20097;-78
2023/06/02 23:06:38;;;;;;;3.10;1.45;;;;;;;12.95;48.34;101006.19;10092514;29;20065;-78
2023/06/02 23:11:41;;;;;;;2.88;1.13;;;;;;;12.82;48.13;101009.88;10093990;29;20552;-79